createdAt,value
2019-03-17T00:02:15.174Z,114.97
2019-03-17T00:04:46.664Z,94.95
2019-03-17T00:07:18.011Z,88.80
2019-03-17T00:09:49.352Z,94.87
2019-03-17T00:12:23.794Z,68.47
2019-03-17T00:15:04.704Z,64.45
2019-03-17T00:17:28.245Z,67.35
2019-03-17T00:19:59.620Z,59.63
2019-03-17T00:22:31.001Z,59.03
2019-03-17T00:25:09.139Z,57.98
2019-03-17T00:27:35.354Z,57.23
2019-03-17T00:30:11.381Z,48.48
2019-03-17T00:32:42.926Z,46.45
2019-03-17T00:35:14.305Z,58.63
2019-03-17T00:37:45.519Z,46.30
2019-03-17T00:40:16.938Z,50.43
2019-03-17T00:42:48.358Z,62.23
2019-03-17T00:45:19.620Z,52.35
2019-03-17T00:47:50.941Z,52.15
2019-03-17T00:50:22.281Z,44.88
2019-03-17T00:52:53.667Z,53.35
2019-03-17T00:55:25.041Z,57.08
2019-03-17T00:57:56.430Z,51.33
2019-03-17T01:00:27.689Z,43.90
2019-03-17T01:03:00.079Z,66.02
2019-03-17T01:05:31.633Z,51.75
2019-03-17T01:08:02.993Z,62.55
2019-03-17T01:10:34.315Z,57.08
2019-03-17T01:13:05.950Z,44.18
2019-03-17T01:15:37.258Z,49.48
2019-03-17T01:18:08.582Z,43.95
2019-03-17T01:20:39.981Z,48.63
2019-03-17T01:23:11.367Z,50.10
2019-03-17T01:25:42.621Z,49.08
2019-03-17T01:28:13.915Z,63.30
2019-03-17T01:30:45.256Z,56.77
2019-03-17T01:33:16.636Z,63.55
2019-03-17T01:35:48.067Z,75.42
2019-03-17T01:38:19.450Z,76.82
2019-03-17T01:40:50.758Z,71.02
2019-03-17T01:43:21.933Z,78.57
2019-03-17T01:45:53.271Z,90.10
2019-03-17T01:48:24.701Z,101.00
2019-03-17T01:50:56.000Z,96.85
2019-03-17T01:53:27.460Z,86.15
2019-03-17T01:55:58.737Z,100.87
2019-03-17T01:58:30.117Z,97.65
2019-03-17T02:01:01.429Z,108.72
2019-03-17T02:03:34.055Z,88.45
2019-03-17T02:06:05.377Z,99.77
2019-03-17T02:08:36.765Z,104.30
2019-03-17T02:11:08.070Z,87.00
2019-03-17T02:13:39.321Z,98.03
2019-03-17T02:16:10.546Z,85.32
2019-03-17T02:18:41.937Z,84.83
2019-03-17T02:21:13.305Z,79.97
2019-03-17T02:23:44.548Z,83.55
2019-03-17T02:26:15.866Z,53.60
2019-03-17T02:28:47.155Z,89.55
2019-03-17T02:31:18.528Z,62.78
2019-03-17T02:33:49.807Z,71.42
2019-03-17T02:36:21.047Z,71.35
2019-03-17T02:38:52.439Z,75.25
2019-03-17T02:41:23.838Z,70.85
2019-03-17T02:43:55.312Z,59.98
2019-03-17T02:46:26.626Z,86.97
2019-03-17T02:48:57.993Z,74.00
2019-03-17T02:51:29.325Z,74.15
2019-03-17T02:54:00.748Z,80.90
2019-03-17T02:56:32.089Z,85.45
2019-03-17T02:59:03.493Z,81.10
2019-03-17T03:01:34.759Z,86.08
2019-03-17T03:04:06.199Z,69.25
2019-03-17T03:06:37.495Z,60.17
2019-03-17T03:09:08.856Z,86.40
2019-03-17T03:11:40.259Z,120.45
2019-03-17T03:14:11.680Z,95.47
2019-03-17T03:16:43.091Z,96.35
2019-03-17T03:19:14.415Z,78.85
2019-03-17T03:21:45.692Z,66.95
2019-03-17T03:24:17.075Z,86.02
2019-03-17T03:26:48.690Z,81.78
2019-03-17T03:29:19.955Z,79.77
2019-03-17T03:31:51.253Z,86.02
2019-03-17T03:34:22.951Z,75.50
2019-03-17T03:36:54.350Z,85.47
2019-03-17T03:39:26.659Z,80.97
2019-03-17T03:41:57.995Z,68.60
2019-03-17T03:44:29.326Z,88.37
2019-03-17T03:47:00.627Z,80.07
2019-03-17T03:49:31.961Z,60.75
2019-03-17T03:52:03.398Z,79.97
2019-03-17T03:54:34.761Z,72.62
2019-03-17T03:57:06.163Z,77.35
2019-03-17T03:59:37.492Z,77.27
2019-03-17T04:02:08.792Z,66.85
2019-03-17T04:04:40.167Z,73.07
2019-03-17T04:07:11.541Z,68.70
2019-03-17T04:09:42.857Z,67.95
2019-03-17T04:12:14.060Z,55.63
2019-03-17T04:14:45.360Z,62.80
2019-03-17T04:17:16.743Z,56.88
2019-03-17T04:19:47.985Z,56.68
2019-03-17T04:22:19.303Z,44.80
2019-03-17T04:24:50.579Z,46.45
2019-03-17T04:27:21.909Z,52.60
2019-03-17T04:29:54.496Z,42.33
2019-03-17T04:32:25.915Z,34.08
2019-03-17T04:34:57.336Z,38.65
2019-03-17T04:37:29.148Z,31.90
2019-03-17T04:40:00.859Z,29.35
2019-03-17T04:42:32.287Z,29.45
2019-03-17T04:45:03.650Z,24.80
2019-03-17T04:47:34.963Z,30.92
2019-03-17T04:50:07.702Z,21.50
2019-03-17T04:52:38.980Z,22.95
2019-03-17T04:55:10.405Z,18.42
2019-03-17T04:57:41.635Z,27.30
2019-03-17T05:00:13.576Z,18.85
2019-03-17T05:02:44.887Z,22.62
2019-03-17T05:05:16.400Z,21.60
2019-03-17T05:07:47.689Z,28.17
2019-03-17T05:10:18.925Z,38.60
2019-03-17T05:12:50.232Z,24.37
2019-03-17T05:15:22.697Z,20.62
2019-03-17T05:20:24.923Z,22.62
2019-03-17T05:22:56.182Z,18.95
2019-03-17T05:25:27.427Z,24.43
2019-03-17T05:27:58.715Z,27.77
2019-03-17T05:30:30.068Z,20.43
2019-03-17T05:33:01.361Z,16.48
2019-03-17T05:35:32.719Z,23.25
2019-03-17T05:38:04.230Z,20.62
2019-03-17T05:40:35.607Z,20.12
2019-03-17T05:43:06.935Z,22.48
2019-03-17T05:45:38.268Z,19.82
2019-03-17T05:48:09.511Z,23.10
2019-03-17T05:50:40.937Z,22.85
2019-03-17T05:53:12.330Z,21.48
2019-03-17T05:55:43.786Z,22.98
2019-03-17T05:58:15.068Z,17.48
2019-03-17T06:00:46.390Z,11.28
2019-03-17T06:03:17.602Z,16.85
2019-03-17T06:05:48.917Z,17.80
2019-03-17T06:08:20.320Z,16.93
2019-03-17T06:10:51.642Z,17.00
2019-03-17T06:13:22.980Z,18.05
2019-03-17T06:15:54.327Z,16.80
2019-03-17T06:18:25.643Z,16.90
2019-03-17T06:20:57.011Z,20.57
2019-03-17T06:23:28.265Z,17.07
2019-03-17T06:25:59.666Z,17.12
2019-03-17T06:28:31.041Z,20.68
2019-03-17T06:31:02.326Z,20.85
2019-03-17T06:33:33.727Z,177.38
2019-03-17T06:36:05.006Z,26.55
2019-03-17T06:38:36.945Z,86.47
2019-03-17T06:41:08.647Z,33.55
2019-03-17T06:43:40.107Z,77.05
2019-03-17T06:46:14.889Z,32.40
2019-03-17T06:48:54.932Z,22.48
2019-03-17T06:51:33.551Z,27.40
2019-03-17T06:54:04.788Z,23.73
2019-03-17T06:56:36.916Z,20.95
2019-03-17T06:59:08.154Z,22.30
2019-03-17T07:01:39.552Z,21.95
2019-03-17T07:04:10.907Z,20.57
2019-03-17T07:06:42.658Z,23.45
2019-03-17T07:09:15.303Z,20.23
2019-03-17T07:11:46.561Z,22.35
2019-03-17T07:14:19.672Z,63.90
2019-03-17T07:16:51.056Z,21.00
2019-03-17T07:19:23.352Z,21.87
2019-03-17T07:21:54.591Z,20.23
2019-03-17T07:24:25.984Z,20.90
2019-03-17T07:26:57.238Z,21.65
2019-03-17T07:29:30.172Z,19.60
2019-03-17T07:32:03.277Z,23.25
2019-03-17T07:34:37.187Z,22.80
2019-03-17T07:37:08.536Z,20.00
2019-03-17T07:39:39.958Z,21.50
2019-03-17T07:42:14.422Z,22.05
2019-03-17T07:44:53.366Z,17.02
2019-03-17T07:47:24.713Z,15.80
2019-03-17T07:49:57.058Z,14.33
2019-03-17T07:52:28.392Z,17.42
2019-03-17T07:54:59.725Z,12.28
2019-03-17T07:57:30.969Z,16.20
2019-03-17T08:00:02.201Z,21.80
2019-03-17T08:02:33.592Z,17.62
2019-03-17T08:05:07.215Z,19.73
2019-03-17T08:07:38.861Z,18.73
2019-03-17T08:10:14.372Z,18.20
2019-03-17T08:12:45.714Z,19.87
2019-03-17T08:15:17.133Z,16.62
2019-03-17T08:17:48.552Z,15.60
2019-03-17T08:20:19.830Z,17.45
2019-03-17T08:22:51.256Z,19.95
2019-03-17T08:25:22.585Z,25.43
2019-03-17T08:27:53.874Z,20.85
2019-03-17T08:30:25.228Z,16.90
2019-03-17T08:32:56.536Z,44.50
2019-03-17T08:35:27.912Z,10.78
2019-03-17T08:37:59.182Z,12.98
2019-03-17T08:40:30.431Z,18.55
2019-03-17T08:43:01.751Z,21.95
2019-03-17T08:45:33.083Z,14.07
2019-03-17T08:48:04.721Z,18.37
2019-03-17T08:50:36.061Z,34.60
2019-03-17T08:53:07.324Z,15.30
2019-03-17T08:55:38.547Z,13.40
2019-03-17T08:58:09.927Z,20.50
2019-03-17T09:00:41.292Z,17.98
2019-03-17T09:03:12.639Z,18.57
2019-03-17T09:05:44.051Z,19.65
2019-03-17T09:08:15.627Z,17.27
2019-03-17T09:10:46.907Z,21.95
2019-03-17T09:13:18.066Z,20.07
2019-03-17T09:15:49.314Z,27.65
2019-03-17T09:18:20.630Z,21.93
2019-03-17T09:20:51.944Z,15.80
2019-03-17T09:23:23.106Z,124.18
2019-03-17T09:25:54.465Z,25.43
2019-03-17T09:28:25.878Z,16.48
2019-03-17T09:30:57.327Z,11.63
2019-03-17T09:33:28.580Z,17.87
2019-03-17T09:36:00.419Z,16.20
2019-03-17T09:38:32.127Z,26.25
2019-03-17T09:41:03.494Z,17.75
2019-03-17T09:43:34.937Z,19.10
2019-03-17T09:46:06.292Z,13.25
2019-03-17T09:48:37.710Z,12.40
2019-03-17T09:51:08.986Z,16.52
2019-03-17T09:53:40.245Z,21.65
2019-03-17T09:56:11.566Z,15.00
2019-03-17T09:58:45.547Z,20.15
2019-03-17T10:01:15.841Z,18.80
2019-03-17T10:03:47.208Z,13.48
2019-03-17T10:06:18.550Z,18.10
2019-03-17T10:08:59.377Z,11.48
2019-03-17T10:11:23.312Z,12.93
2019-03-17T10:13:54.632Z,14.53
2019-03-17T10:16:25.858Z,14.28
2019-03-17T10:18:57.000Z,13.75
2019-03-17T10:21:28.319Z,15.85
2019-03-17T10:23:59.633Z,16.42
2019-03-17T10:26:30.962Z,36.48
2019-03-17T10:29:02.139Z,16.15
2019-03-17T10:31:33.413Z,9.70
2019-03-17T10:34:04.625Z,9.27
2019-03-17T10:36:36.952Z,8.78
2019-03-17T10:39:12.755Z,13.15
2019-03-17T10:41:41.157Z,13.90
2019-03-17T10:44:12.397Z,15.38
2019-03-17T10:46:43.673Z,18.75
2019-03-17T10:49:15.077Z,25.02
2019-03-17T10:51:46.422Z,32.38
2019-03-17T10:54:17.814Z,28.55
2019-03-17T10:56:49.435Z,15.93
2019-03-17T10:59:20.825Z,17.05
2019-03-17T11:01:52.138Z,18.45
2019-03-17T11:04:23.447Z,20.52
2019-03-17T11:06:55.715Z,19.67
2019-03-17T11:09:26.984Z,16.23
2019-03-17T11:11:58.365Z,17.15
2019-03-17T11:14:29.677Z,15.98
2019-03-17T11:17:01.071Z,18.48
2019-03-17T11:19:32.409Z,13.00
2019-03-17T11:22:03.740Z,9.53
2019-03-17T11:24:35.084Z,12.95
2019-03-17T11:27:06.393Z,13.83
2019-03-17T11:29:37.675Z,15.13
2019-03-17T11:32:08.936Z,11.05
2019-03-17T11:34:40.867Z,12.53
2019-03-17T11:37:12.527Z,10.50
2019-03-17T11:39:43.895Z,10.20
2019-03-17T11:42:15.128Z,13.78
2019-03-17T11:44:46.410Z,14.75
2019-03-17T11:47:17.765Z,23.50
2019-03-17T11:49:49.059Z,24.27
2019-03-17T11:52:20.338Z,17.20
2019-03-17T11:54:51.716Z,24.47
2019-03-17T11:57:23.125Z,26.90
2019-03-17T11:59:55.349Z,13.03
2019-03-17T12:02:27.076Z,15.68
2019-03-17T12:04:58.796Z,17.37
2019-03-17T12:07:30.182Z,21.60
2019-03-17T12:10:02.543Z,23.47
2019-03-17T12:12:33.874Z,23.35
2019-03-17T12:15:08.535Z,22.50
2019-03-17T12:17:40.278Z,21.23
2019-03-17T12:20:14.126Z,19.70
2019-03-17T12:22:45.478Z,18.00
2019-03-17T12:25:17.975Z,18.25
2019-03-17T12:27:49.262Z,19.07
2019-03-17T12:30:24.515Z,15.15
2019-03-17T12:32:56.001Z,23.18
2019-03-17T12:35:27.268Z,23.15
2019-03-17T12:37:58.646Z,25.62
2019-03-17T12:40:30.117Z,21.97
2019-03-17T12:43:01.455Z,26.12
2019-03-17T12:45:32.779Z,22.02
2019-03-17T12:48:04.103Z,20.50
2019-03-17T12:50:35.375Z,25.12
2019-03-17T12:53:07.993Z,29.92
2019-03-17T12:55:39.719Z,25.90
2019-03-17T12:58:11.069Z,24.18
2019-03-17T13:00:42.356Z,15.60
2019-03-17T13:03:13.967Z,22.17
2019-03-17T13:05:45.307Z,21.40
2019-03-17T13:08:16.713Z,22.30
2019-03-17T13:10:48.061Z,18.55
2019-03-17T13:13:19.400Z,26.07
2019-03-17T13:15:50.684Z,28.38
2019-03-17T13:18:22.080Z,20.80
2019-03-17T13:20:53.508Z,23.92
2019-03-17T13:23:24.756Z,43.87
2019-03-17T13:25:56.133Z,39.38
2019-03-17T13:28:28.366Z,41.02
2019-03-17T13:30:59.692Z,33.58
2019-03-17T13:33:31.084Z,24.47
2019-03-17T13:36:02.541Z,18.05
2019-03-17T13:38:34.065Z,20.23
2019-03-17T13:41:05.320Z,18.20
2019-03-17T13:43:36.813Z,22.60
2019-03-17T13:46:08.215Z,17.30
2019-03-17T13:48:39.575Z,20.20
2019-03-17T13:51:11.042Z,27.75
2019-03-17T13:53:42.368Z,31.12
2019-03-17T13:56:13.777Z,39.75
2019-03-17T13:58:45.100Z,32.03
2019-03-17T14:01:16.467Z,18.65
2019-03-17T14:03:47.743Z,22.87
2019-03-17T14:06:19.582Z,21.33
2019-03-17T14:08:52.162Z,21.97
2019-03-17T14:11:23.492Z,29.02
2019-03-17T14:13:55.298Z,29.32
2019-03-17T14:16:26.602Z,28.32
2019-03-17T14:18:57.942Z,27.80
2019-03-17T14:21:29.240Z,30.82
2019-03-17T14:24:00.529Z,19.17
2019-03-17T14:26:31.921Z,22.82
2019-03-17T14:29:03.331Z,19.45
2019-03-17T14:31:35.105Z,17.12
2019-03-17T14:34:06.435Z,17.90
2019-03-17T14:36:37.754Z,14.95
2019-03-17T14:39:09.004Z,16.00
2019-03-17T14:41:40.406Z,21.73
2019-03-17T14:44:11.764Z,16.07
2019-03-17T14:46:43.086Z,20.80
2019-03-17T14:49:15.534Z,21.30
2019-03-17T14:51:46.763Z,21.68
2019-03-17T14:54:18.105Z,24.35
2019-03-17T14:56:49.472Z,25.15
2019-03-17T14:59:20.872Z,21.68
2019-03-17T15:01:52.194Z,31.35
2019-03-17T15:04:23.593Z,23.62
2019-03-17T15:06:54.985Z,26.75
2019-03-17T15:09:26.419Z,28.30
2019-03-17T15:11:57.756Z,31.45
2019-03-17T15:14:29.156Z,33.80
2019-03-17T15:17:00.414Z,27.00
2019-03-17T15:19:31.663Z,27.07
2019-03-17T15:22:03.099Z,15.70
2019-03-17T15:24:34.462Z,12.75
2019-03-17T15:27:05.770Z,12.58
2019-03-17T15:29:36.981Z,10.55
2019-03-17T15:32:08.303Z,11.48
2019-03-17T15:34:39.645Z,14.85
2019-03-17T15:37:12.505Z,12.98
2019-03-17T15:39:43.857Z,18.80
2019-03-17T15:42:15.221Z,21.33
2019-03-17T15:44:46.568Z,19.98
2019-03-17T15:47:17.940Z,19.87
2019-03-17T15:49:50.440Z,17.80
2019-03-17T15:52:21.852Z,22.35
2019-03-17T15:54:53.198Z,10.60
2019-03-17T15:57:24.472Z,18.57
2019-03-17T15:59:55.822Z,16.57
2019-03-17T16:02:27.126Z,15.45
2019-03-17T16:04:58.520Z,18.52
2019-03-17T16:07:41.440Z,16.62
2019-03-17T16:10:03.779Z,15.50
2019-03-17T16:12:35.178Z,15.75
2019-03-17T16:15:12.171Z,16.45
2019-03-17T16:17:43.487Z,16.02
2019-03-17T16:20:25.658Z,14.07
2019-03-17T16:25:29.040Z,13.45
2019-03-17T16:28:00.176Z,13.88
2019-03-17T16:30:32.801Z,16.17
2019-03-17T16:33:04.204Z,21.00
2019-03-17T16:35:35.631Z,21.35
2019-03-17T16:38:07.945Z,15.13
2019-03-17T16:40:40.322Z,21.30
2019-03-17T16:43:11.620Z,13.78
2019-03-17T16:45:43.018Z,13.20
2019-03-17T16:48:14.542Z,20.17
2019-03-17T16:50:45.951Z,19.73
2019-03-17T16:53:17.225Z,19.77
2019-03-17T16:55:48.591Z,31.73
2019-03-17T16:58:19.841Z,28.20
2019-03-17T17:00:51.191Z,48.28
2019-03-17T17:03:22.406Z,20.70
2019-03-17T17:05:54.235Z,23.52
2019-03-17T17:08:25.568Z,27.62
2019-03-17T17:10:56.980Z,22.62
2019-03-17T17:13:28.324Z,30.17
2019-03-17T17:15:59.634Z,27.67
2019-03-17T17:18:30.985Z,26.27
2019-03-17T17:21:02.405Z,25.17
2019-03-17T17:23:33.963Z,22.13
2019-03-17T17:26:05.309Z,29.32
2019-03-17T17:28:36.645Z,22.77
2019-03-17T17:31:07.965Z,58.48
2019-03-17T17:33:39.245Z,43.35
2019-03-17T17:36:10.409Z,37.78
2019-03-17T17:38:41.717Z,31.05
2019-03-17T17:41:12.970Z,26.48
2019-03-17T17:43:44.288Z,74.90
2019-03-17T17:46:15.595Z,37.08
2019-03-17T17:48:46.970Z,35.52
2019-03-17T17:51:18.309Z,27.10
2019-03-17T17:53:49.692Z,21.40
2019-03-17T17:56:21.052Z,18.95
2019-03-17T17:58:52.394Z,24.82
2019-03-17T18:01:23.711Z,26.50
2019-03-17T18:03:56.174Z,18.70
2019-03-17T18:06:29.070Z,29.37
2019-03-17T18:09:00.976Z,27.67
2019-03-17T18:11:32.424Z,22.37
2019-03-17T18:14:03.795Z,27.25
2019-03-17T18:16:35.024Z,25.97
2019-03-17T18:19:06.372Z,29.40
2019-03-17T18:21:37.696Z,22.80
2019-03-17T18:24:09.037Z,26.93
2019-03-17T18:26:40.396Z,17.20
2019-03-17T18:29:11.836Z,24.55
2019-03-17T18:31:43.722Z,22.85
2019-03-17T18:34:14.927Z,24.40
2019-03-17T18:36:46.339Z,25.82
2019-03-17T18:39:17.660Z,22.17
2019-03-17T18:41:49.115Z,19.60
2019-03-17T18:44:20.466Z,23.45
2019-03-17T18:46:51.842Z,23.02
2019-03-17T18:49:23.120Z,22.82
2019-03-17T18:51:54.511Z,32.93
2019-03-17T18:54:25.821Z,33.42
2019-03-17T18:56:57.221Z,46.30
2019-03-17T18:59:28.823Z,30.70
2019-03-17T19:02:01.161Z,34.08
2019-03-17T19:04:33.622Z,46.25
2019-03-17T19:07:04.996Z,46.15
2019-03-17T19:09:37.392Z,45.12
2019-03-17T19:12:08.778Z,53.33
2019-03-17T19:14:40.208Z,40.98
2019-03-17T19:17:12.706Z,57.73
2019-03-17T19:19:44.292Z,66.00
2019-03-17T19:22:15.632Z,60.70
2019-03-17T19:24:48.558Z,66.90
2019-03-17T19:27:19.899Z,59.67
2019-03-17T19:29:51.322Z,59.70
2019-03-17T19:32:22.735Z,54.75
2019-03-17T19:34:54.069Z,65.65
2019-03-17T19:37:25.737Z,56.35
2019-03-17T19:39:57.141Z,66.35
2019-03-17T19:42:28.384Z,96.40
2019-03-17T19:44:59.848Z,116.95
2019-03-17T19:47:31.195Z,114.45
2019-03-17T19:50:02.589Z,114.52
2019-03-17T19:52:35.305Z,108.00
2019-03-17T19:55:08.292Z,100.10
2019-03-17T19:57:39.654Z,112.05
2019-03-17T20:00:19.213Z,116.60
2019-03-17T20:02:50.608Z,102.60
2019-03-17T20:05:22.031Z,77.40
2019-03-17T20:07:54.354Z,103.65
2019-03-17T20:10:32.333Z,114.47
2019-03-17T20:13:11.716Z,107.20
2019-03-17T20:15:36.868Z,104.27
2019-03-17T20:18:08.169Z,97.72
2019-03-17T20:20:39.578Z,100.20
2019-03-17T20:23:11.054Z,107.85
2019-03-17T20:25:42.457Z,78.60
2019-03-17T20:28:13.818Z,102.05
2019-03-17T20:30:45.148Z,74.67
2019-03-17T20:33:16.505Z,112.22
2019-03-17T20:35:48.035Z,100.87
2019-03-17T20:38:19.331Z,106.52
2019-03-17T20:40:50.539Z,104.55
2019-03-17T20:43:34.237Z,111.57
2019-03-17T20:45:54.832Z,95.87
2019-03-17T20:48:26.152Z,116.10
2019-03-17T20:50:59.683Z,109.03
2019-03-17T20:53:30.611Z,117.77
2019-03-17T20:56:01.996Z,100.42
2019-03-17T20:58:33.437Z,105.10
2019-03-17T21:01:04.824Z,93.25
2019-03-17T21:03:36.164Z,100.25
2019-03-17T21:06:07.455Z,99.17
2019-03-17T21:08:38.745Z,89.42
2019-03-17T21:11:10.121Z,123.30
2019-03-17T21:13:46.753Z,93.55
2019-03-17T21:16:14.528Z,115.05
2019-03-17T21:18:45.889Z,132.30
2019-03-17T21:21:17.212Z,140.35
2019-03-17T21:23:48.577Z,135.00
2019-03-17T21:26:20.011Z,131.45
2019-03-17T21:28:51.473Z,127.00
2019-03-17T21:31:22.909Z,93.95
2019-03-17T21:33:54.681Z,115.40
2019-03-17T21:36:25.970Z,108.30
2019-03-17T21:38:57.266Z,104.83
2019-03-17T21:41:28.635Z,121.10
2019-03-17T21:44:00.111Z,98.85
2019-03-17T21:46:31.534Z,108.67
2019-03-17T21:49:02.987Z,89.30
2019-03-17T21:51:34.452Z,103.70
2019-03-17T21:54:05.776Z,105.22
2019-03-17T21:56:37.205Z,101.30
2019-03-17T21:59:08.537Z,103.50
2019-03-17T22:01:39.879Z,124.72
2019-03-17T22:04:11.148Z,124.20
2019-03-17T22:06:42.535Z,137.43
2019-03-17T22:09:17.050Z,259.15
2019-03-17T22:11:46.970Z,409.50
2019-03-17T22:14:18.131Z,461.05
2019-03-17T22:16:49.453Z,387.17
2019-03-17T22:19:20.863Z,247.52
2019-03-17T22:21:52.118Z,204.78
2019-03-17T22:24:23.534Z,204.85
2019-03-17T22:26:54.863Z,116.93
2019-03-17T22:29:26.283Z,165.75
2019-03-17T22:31:57.667Z,196.28
2019-03-17T22:34:28.996Z,204.55
2019-03-17T22:37:00.422Z,173.57
2019-03-17T22:39:31.756Z,179.80
2019-03-17T22:42:03.229Z,179.55
2019-03-17T22:44:35.289Z,183.32
2019-03-17T22:49:37.036Z,165.70
2019-03-17T22:52:08.437Z,150.27
2019-03-17T22:57:10.798Z,183.85
2019-03-17T22:59:42.146Z,154.95
2019-03-17T23:02:13.562Z,129.12
2019-03-17T23:04:44.815Z,154.32
2019-03-17T23:07:16.203Z,180.27
2019-03-17T23:09:47.678Z,191.15
2019-03-17T23:12:19.026Z,185.63
2019-03-17T23:14:50.409Z,145.45
2019-03-17T23:17:21.778Z,196.82
2019-03-17T23:19:53.154Z,171.43
2019-03-17T23:22:24.541Z,171.70
2019-03-17T23:24:55.935Z,174.40
2019-03-17T23:27:27.258Z,177.07
2019-03-17T23:29:58.507Z,190.45
2019-03-17T23:32:29.862Z,189.30
2019-03-17T23:35:01.194Z,136.90
2019-03-17T23:37:32.637Z,196.05
2019-03-17T23:40:05.191Z,190.75
2019-03-17T23:42:36.607Z,181.65
2019-03-17T23:45:11.737Z,188.85
2019-03-17T23:47:42.860Z,193.25
2019-03-17T23:50:16.907Z,167.05
2019-03-17T23:52:48.371Z,175.40
2019-03-17T23:55:19.621Z,149.93
2019-03-17T23:57:50.969Z,105.65
